Time;durP1;ratioP1;P1;durP2;ratioP2;P2;SDS_P1;SDS_P2;PMS_P1;PMS_P2;Temp;Humidity;BMP_temperature;BMP_pressure;BME280_temperature;BME280_humidity;BME280_pressure;Samples;Min_cycle;Max_cycle;Signal;HPM_P1;HPM_P2
2022/06/02 11:16:00;;;;;;;10.65;5.68;;;9.50;99.90;;;;;;5090972;27;20383;-72
2022/06/02 11:18:33;;;;;;;10.32;5.07;;;9.40;99.90;;;;;;5070244;28;20036;-72
2022/06/02 11:21:24;;;;;;;8.98;5.68;;;9.40;99.90;;;;;;5070613;28;20543;-72
2022/06/02 11:24:04;;;;;;;7.80;4.85;;;9.40;99.90;;;;;;5070304;28;20021;-72
2022/06/02 11:26:34;;;;;;;10.05;5.43;;;9.40;99.90;;;;;;5070278;28;20025;-73
2022/06/02 11:29:19;;;;;;;8.00;4.93;;;9.40;99.90;;;;;;5070758;28;20472;-71
2022/06/02 11:32:08;;;;;;;7.00;4.63;;;9.40;99.90;;;;;;5070173;28;20021;-72
2022/06/02 11:35:03;;;;;;;6.00;4.18;;;9.50;99.90;;;;;;5070267;28;20484;-72
2022/06/02 11:37:39;;;;;;;9.57;5.45;;;9.60;99.90;;;;;;5070200;28;20412;-73
2022/06/02 11:40:41;;;;;;;7.53;4.13;;;9.70;99.90;;;;;;5070555;28;20021;-73
2022/06/02 11:43:16;;;;;;;8.38;4.47;;;9.70;99.90;;;;;;5070097;28;20485;-73
2022/06/02 11:46:14;;;;;;;9.00;5.13;;;9.70;99.90;;;;;;5068410;28;20075;-73
2022/06/02 11:48:53;;;;;;;7.43;4.95;;;9.60;99.90;;;;;;5069775;28;20106;-74
2022/06/02 11:51:39;;;;;;;8.77;4.72;;;9.60;99.90;;;;;;5068313;28;20082;-74
2022/06/02 11:54:24;;;;;;;6.13;4.03;;;9.60;99.90;;;;;;5069841;28;20361;-73
2022/06/02 11:57:35;;;;;;;6.75;3.92;;;9.50;99.90;;;;;;5069779;28;20398;-75
2022/06/02 12:00:08;;;;;;;;;;;9.50;99.90;;;;;;5064425;28;20060;-72
2022/06/02 12:03:03;;;;;;;7.05;5.10;;;9.50;99.90;;;;;;5069920;28;19911;-73
2022/06/02 12:05:36;;;;;;;8.68;5.35;;;9.40;99.90;;;;;;5068030;28;20454;-73
2022/06/02 12:08:50;;;;;;;9.90;6.25;;;9.30;99.90;;;;;;5069782;28;20036;-74
2022/06/02 12:11:29;;;;;;;7.80;5.68;;;9.20;99.90;;;;;;5069507;28;20028;-73
2022/06/02 12:14:26;;;;;;;7.38;4.13;;;9.20;99.90;;;;;;5067818;28;20120;-73
2022/06/02 12:17:13;;;;;;;7.25;4.28;;;9.20;99.90;;;;;;5067785;28;20028;-74
2022/06/02 12:20:10;;;;;;;5.88;4.25;;;9.10;99.90;;;;;;5067680;28;20548;-74
2022/06/02 12:22:44;;;;;;;9.95;4.32;;;9.10;99.90;;;;;;5067841;28;20021;-73
2022/06/02 12:25:35;;;;;;;8.65;6.60;;;9.00;99.90;;;;;;5065274;28;20029;-73
2022/06/02 12:28:23;;;;;;;7.50;6.07;;;9.00;99.90;;;;;;5053863;28;20033;-73
2022/06/02 12:31:06;;;;;;;11.88;8.63;;;8.90;99.90;;;;;;5054635;28;20040;-73
2022/06/02 12:34:03;;;;;;;13.23;9.07;;;8.80;99.90;;;;;;5054887;28;20036;-71
2022/06/02 12:36:30;;;;;;;9.45;6.25;;;8.80;99.90;;;;;;5055780;28;20017;-72
2022/06/02 12:39:34;;;;;;;9.98;7.38;;;8.90;99.90;;;;;;5055513;28;20053;-72
2022/06/02 12:42:29;;;;;;;7.25;5.03;;;8.90;99.90;;;;;;5055622;28;20385;-72
2022/06/02 12:45:13;;;;;;;9.95;5.45;;;8.90;99.90;;;;;;5055590;28;20029;-72
2022/06/02 12:48:15;;;;;;;10.15;4.47;;;9.00;99.90;;;;;;5054248;28;20052;-72
2022/06/02 12:51:10;;;;;;;6.28;3.72;;;9.00;99.90;;;;;;5050504;28;20064;-72
2022/06/02 12:53:40;;;;;;;5.25;3.22;;;9.10;99.90;;;;;;5055354;28;20473;-72
2022/06/02 12:56:32;;;;;;;4.72;2.88;;;9.20;99.90;;;;;;5053887;28;20025;-71
2022/06/02 12:59:17;;;;;;;4.95;2.35;;;9.40;99.90;;;;;;5055369;28;20013;-73
2022/06/02 13:02:02;;;;;;;5.40;3.10;;;9.50;99.90;;;;;;5070409;28;20071;-72
2022/06/02 13:04:59;;;;;;;4.93;2.65;;;9.70;99.90;;;;;;5055261;28;20029;-73
2022/06/02 13:07:47;;;;;;;5.20;2.40;;;9.80;99.90;;;;;;5055193;28;20032;-72
2022/06/02 13:10:44;;;;;;;4.43;2.58;;;9.90;99.90;;;;;;5053554;28;20034;-72
2022/06/02 13:13:26;;;;;;;4.65;2.10;;;9.90;99.90;;;;;;5055286;28;20484;-71
2022/06/02 13:16:35;;;;;;;5.07;2.50;;;9.90;99.90;;;;;;5055209;28;20112;-72
2022/06/02 13:19:41;;;;;;;4.10;2.00;;;9.90;99.90;;;;;;5053127;28;20029;-73
2022/06/02 13:22:36;;;;;;;5.35;2.15;;;9.90;99.90;;;;;;5054670;28;20048;-73
2022/06/02 13:25:06;;;;;;;3.70;2.88;;;9.90;99.90;;;;;;5053447;28;20025;-73
2022/06/02 13:27:51;;;;;;;3.72;1.98;;;10.00;99.90;;;;;;5054624;28;20399;-74
2022/06/02 13:30:33;;;;;;;3.00;1.92;;;10.10;99.90;;;;;;5053216;28;20040;-72
2022/06/02 13:33:07;;;;;;;3.55;1.92;;;10.10;99.90;;;;;;5054577;28;20028;-73
2022/06/02 13:35:35;;;;;;;3.38;2.10;;;10.00;99.90;;;;;;5054561;28;20384;-73
2022/06/02 13:38:49;;;;;;;4.10;2.05;;;10.00;99.90;;;;;;5053854;28;20100;-73
2022/06/02 13:41:37;;;;;;;2.80;1.92;;;10.00;99.90;;;;;;5053202;28;20039;-73
2022/06/02 13:44:30;;;;;;;2.58;1.67;;;10.00;99.90;;;;;;5069712;28;20021;-71
2022/06/02 13:47:21;;;;;;;2.53;1.55;;;10.10;99.90;;;;;;5054308;28;20067;-73
2022/06/02 13:50:09;;;;;;;4.10;1.98;;;10.10;99.90;;;;;;5054508;28;20029;-72
2022/06/02 13:52:57;;;;;;;3.38;1.80;;;10.10;99.90;;;;;;5054157;28;20107;-72
2022/06/02 13:59:25;;;;;;;2.95;1.67;;;10.10;99.90;;;;;;5054148;28;20112;-72
2022/06/02 14:02:05;;;;;;;2.55;1.70;;;10.00;99.90;;;;;;5038644;28;20107;-72
2022/06/02 14:04:35;;;;;;;2.28;1.65;;;10.00;99.90;;;;;;5053943;28;20017;-72
2022/06/02 14:07:38;;;;;;;2.70;1.45;;;10.00;99.90;;;;;;5053824;28;20021;-72
2022/06/02 14:10:25;;;;;;;2.00;1.38;;;10.00;99.90;;;;;;5053807;28;20431;-73
2022/06/02 14:13:10;;;;;;;1.98;1.52;;;10.00;99.90;;;;;;5052456;28;20481;-72
2022/06/02 14:15:38;;;;;;;4.18;1.70;;;10.10;99.90;;;;;;5053944;28;20087;-72
2022/06/02 14:18:40;;;;;;;3.20;1.73;;;10.10;99.90;;;;;;5053585;28;20013;-72
2022/06/02 14:21:24;;;;;;;4.10;1.90;;;10.10;99.90;;;;;;5053283;28;20060;-72
2022/06/02 14:24:12;;;;;;;3.92;2.17;;;10.10;99.90;;;;;;5052248;28;20049;-72
2022/06/02 14:27:16;;;;;;;2.63;1.75;;;10.00;99.90;;;;;;5053435;28;20025;-72
2022/06/02 14:30:11;;;;;;;2.28;1.55;;;10.10;99.90;;;;;;5052029;28;20031;-72
2022/06/02 14:32:59;;;;;;;3.08;1.52;;;10.10;99.90;;;;;;5053300;28;20039;-72
2022/06/02 14:35:55;;;;;;;2.67;1.60;;;10.10;99.90;;;;;;5053372;28;20039;-72
2022/06/02 14:38:54;;;;;;;3.20;1.80;;;9.90;99.90;;;;;;5051157;28;20091;-72
2022/06/02 14:41:51;;;;;;;3.45;1.70;;;9.80;99.90;;;;;;5053192;28;20017;-73
2022/06/02 14:44:42;;;;;;;5.78;2.40;;;9.60;99.90;;;;;;5051877;28;20485;-73
2022/06/02 14:47:15;;;;;;;3.58;2.28;;;9.50;99.90;;;;;;5053165;28;20025;-73
2022/06/02 14:50:15;;;;;;;4.07;2.28;;;9.40;99.90;;;;;;5053364;28;20381;-73
2022/06/02 14:52:43;;;;;;;3.60;2.40;;;9.20;99.90;;;;;;5053208;28;20091;-74
2022/06/02 14:55:37;;;;;;;4.25;2.33;;;9.10;99.90;;;;;;5053036;28;20278;-73
2022/06/02 14:58:34;;;;;;;3.50;2.25;;;9.00;99.90;;;;;;5053127;28;20020;-73
2022/06/02 15:01:11;;;;;;;3.63;2.40;;;8.90;99.90;;;;;;5051701;28;20100;-74
2022/06/02 15:04:01;;;;;;;2.70;2.10;;;8.80;99.90;;;;;;5051734;28;20029;-74
2022/06/02 15:06:29;;;;;;;5.35;2.58;;;8.70;99.90;;;;;;5068447;28;20121;-73
2022/06/02 15:09:25;;;;;;;4.25;2.85;;;8.60;99.90;;;;;;5053080;28;20112;-74
2022/06/02 15:12:19;;;;;;;4.53;2.88;;;8.60;99.90;;;;;;5053778;28;20032;-74
2022/06/02 15:15:11;;;;;;;4.85;3.28;;;8.50;99.90;;;;;;5053313;28;20523;-75
2022/06/02 15:17:46;;;;;;;4.07;3.00;;;8.50;99.90;;;;;;5053834;28;20554;-76
2022/06/02 15:20:47;;;;;;;5.65;3.17;;;8.40;99.90;;;;;;5052435;28;20025;-76
2022/06/02 15:23:41;;;;;;;4.10;2.72;;;8.30;99.90;;;;;;5053181;28;20056;-75
2022/06/02 15:26:27;;;;;;;3.78;2.65;;;8.20;99.90;;;;;;5053670;28;20059;-75
2022/06/02 15:29:17;;;;;;;4.30;2.83;;;8.20;99.90;;;;;;5055666;28;20036;-74
2022/06/02 15:31:59;;;;;;;4.95;2.75;;;8.20;99.90;;;;;;5053414;28;20025;-75
2022/06/02 15:34:55;;;;;;;5.18;3.00;;;8.10;99.90;;;;;;5053240;28;20077;-74
2022/06/02 15:37:44;;;;;;;6.63;3.40;;;8.10;99.90;;;;;;5053349;28;20021;-74
2022/06/02 15:40:45;;;;;;;6.03;3.35;;;8.10;99.90;;;;;;5054384;28;20017;-74
2022/06/02 15:44:04;;;;;;;7.75;4.30;;;8.00;99.90;;;;;;5052700;28;20068;-74
2022/06/02 15:47:07;;;;;;;3.95;3.13;;;8.00;99.90;;;;;;5016845;28;20092;-75
2022/06/02 15:50:04;;;;;;;5.78;3.35;;;8.00;99.90;;;;;;5053668;28;20464;-74
2022/06/02 15:52:35;;;;;;;4.10;3.17;;;8.00;99.90;;;;;;5053649;28;20499;-74
2022/06/02 15:55:31;;;;;;;4.70;3.35;;;8.00;99.90;;;;;;5051926;28;20029;-74
2022/06/02 15:58:35;;;;;;;7.03;3.63;;;8.00;99.90;;;;;;5043890;28;20029;-74
2022/06/02 16:01:24;;;;;;;4.63;3.15;;;8.00;99.90;;;;;;5054429;28;20105;-74
2022/06/02 16:04:19;;;;;;;5.13;3.17;;;7.90;99.90;;;;;;5057166;28;20021;-74
2022/06/02 16:07:23;;;;;;;5.35;3.67;;;7.90;99.90;;;;;;5056628;28;20385;-74
2022/06/02 16:13:21;;;;;;;4.88;3.38;;;7.80;99.90;;;;;;5056183;28;20071;-74
2022/06/02 16:16:12;;;;;;;5.15;3.17;;;7.80;99.90;;;;;;5056566;28;20075;-74
2022/06/02 16:18:40;;;;;;;5.97;3.00;;;7.80;99.90;;;;;;5056244;28;20143;-74
2022/06/02 16:21:19;;;;;;;4.70;3.00;;;7.70;99.90;;;;;;5054615;28;20021;-74
2022/06/02 16:24:24;;;;;;;6.43;3.10;;;7.70;99.90;;;;;;5056123;28;20385;-74
2022/06/02 16:27:56;;;;;;;6.13;3.13;;;7.60;99.90;;;;;;5056012;28;20021;-75
2022/06/02 16:31:16;;;;;;;3.97;2.78;;;7.60;99.90;;;;;;5049205;28;20389;-74
2022/06/02 16:34:06;;;;;;;4.32;2.72;;;7.60;99.90;;;;;;5053814;28;20497;-73
2022/06/02 16:37:09;;;;;;;5.40;3.05;;;7.50;99.90;;;;;;5004173;28;20505;-74
2022/06/02 16:39:49;;;;;;;5.40;2.53;;;7.60;99.90;;;;;;5055389;28;20033;-74
2022/06/02 16:42:31;;;;;;;4.10;2.70;;;7.50;99.90;;;;;;5055916;28;20017;-75
2022/06/02 16:45:32;;;;;;;4.57;2.60;;;7.50;99.90;;;;;;5055906;28;20079;-74
2022/06/02 16:48:34;;;;;;;6.60;2.80;;;7.40;99.90;;;;;;5056197;28;20021;-74
2022/06/02 16:51:24;;;;;;;5.43;2.47;;;7.40;99.90;;;;;;5052080;28;20033;-74
2022/06/02 16:54:06;;;;;;;4.03;2.53;;;7.30;99.90;;;;;;5056213;28;20469;-74
2022/06/02 16:56:51;;;;;;;4.22;2.60;;;7.30;99.90;;;;;;5055929;28;20032;-74
2022/06/02 16:59:46;;;;;;;7.50;2.95;;;7.20;99.90;;;;;;5054281;28;20435;-74
2022/06/02 17:02:36;;;;;;;4.90;2.88;;;7.20;99.90;;;;;;5055788;28;20013;-74
2022/06/02 17:05:27;;;;;;;4.22;2.50;;;7.20;99.90;;;;;;5051783;28;20045;-74
2022/06/02 17:08:16;;;;;;;3.67;2.50;;;7.20;99.90;;;;;;5054427;28;20036;-74
2022/06/02 17:10:52;;;;;;;4.80;2.90;;;7.20;99.90;;;;;;5054116;28;20163;-74
2022/06/02 17:13:47;;;;;;;5.40;2.83;;;7.10;99.90;;;;;;5055480;28;20021;-74
2022/06/02 17:16:47;;;;;;;5.35;2.83;;;7.10;99.90;;;;;;5055672;28;20488;-74
2022/06/02 17:19:20;;;;;;;4.72;2.33;;;7.20;99.90;;;;;;5055625;28;20451;-74
2022/06/02 17:22:06;;;;;;;4.57;2.85;;;7.10;99.90;;;;;;5055503;28;20156;-74
2022/06/02 17:24:51;;;;;;;5.15;2.33;;;7.20;99.90;;;;;;5055449;28;20036;-74
2022/06/02 17:27:42;;;;;;;4.25;2.65;;;7.10;99.90;;;;;;5055592;28;20036;-74
2022/06/02 17:30:37;;;;;;;4.68;2.38;;;7.10;99.90;;;;;;5055441;28;20013;-74
2022/06/02 17:33:33;;;;;;;5.10;2.30;;;7.10;99.90;;;;;;5054918;28;20528;-74
2022/06/02 17:36:19;;;;;;;3.47;2.30;;;7.10;99.90;;;;;;5052976;28;20037;-74
2022/06/02 17:38:55;;;;;;;2.47;1.90;;;7.10;99.90;;;;;;5053644;28;20028;-74
2022/06/02 17:41:49;;;;;;;3.42;1.85;;;7.00;99.90;;;;;;5054853;28;20031;-74
2022/06/02 17:44:47;;;;;;;4.10;1.65;;;7.10;99.90;;;;;;5055152;28;20017;-74
2022/06/02 17:47:24;;;;;;;3.50;1.80;;;7.10;99.90;;;;;;5049702;28;20033;-74
2022/06/02 17:50:29;;;;;;;1.70;1.30;;;7.20;99.90;;;;;;5056553;28;20017;-77
2022/06/02 17:53:15;;;;;;;2.63;1.52;;;7.20;99.90;;;;;;5070356;28;20032;-74
2022/06/02 17:56:09;;;;;;;3.13;1.70;;;7.20;99.90;;;;;;5053321;28;20484;-74
2022/06/02 17:59:18;;;;;;;2.72;1.88;;;7.20;99.90;;;;;;5054468;28;20066;-74
2022/06/02 18:02:00;;;;;;;2.35;1.50;;;7.20;99.90;;;;;;5054425;28;20025;-74
2022/06/02 18:04:43;;;;;;;2.25;1.90;;;7.20;99.90;;;;;;5053093;28;20538;-75
2022/06/02 18:07:48;;;;;;;2.35;1.38;;;7.10;99.90;;;;;;5054588;28;20021;-74
2022/06/02 18:10:47;;;;;;;4.47;1.50;;;7.10;99.90;;;;;;5052968;28;20116;-74
2022/06/02 18:13:26;;;;;;;2.08;1.20;;;7.10;99.90;;;;;;5054934;28;20024;-74
2022/06/02 18:15:56;;;;;;;1.77;1.20;;;7.20;99.90;;;;;;5055517;28;20094;-76
2022/06/02 18:18:41;;;;;;;4.25;1.00;;;7.20;99.90;;;;;;5053226;28;20021;-76
2022/06/02 18:21:15;;;;;;;2.10;1.08;;;7.20;99.90;;;;;;5053290;28;20033;-74
2022/06/02 18:23:54;;;;;;;1.98;1.27;;;7.20;99.90;;;;;;5052634;28;20024;-74
2022/06/02 18:26:46;;;;;;;1.73;1.05;;;7.20;99.90;;;;;;5054564;28;20032;-74
2022/06/02 18:29:26;;;;;;;2.60;1.23;;;7.20;99.90;;;;;;5052685;28;20078;-74
2022/06/02 18:32:12;;;;;;;4.30;1.45;;;7.10;99.90;;;;;;5054286;28;20021;-76
2022/06/02 18:35:10;;;;;;;1.80;1.30;;;7.10;99.90;;;;;;5054535;28;20055;-77
2022/06/02 18:38:20;;;;;;;2.20;1.20;;;7.10;99.90;;;;;;5054501;28;20021;-77
2022/06/02 18:41:51;;;;;;;2.47;1.40;;;7.10;99.90;;;;;;5055773;28;20121;-77
2022/06/02 18:44:30;;;;;;;2.25;1.25;;;7.10;99.90;;;;;;5016343;28;20417;-76
2022/06/02 18:47:07;;;;;;;3.67;1.70;;;7.10;99.90;;;;;;5016034;28;20025;-75
2022/06/02 18:50:07;;;;;;;3.13;1.60;;;7.20;99.90;;;;;;5050390;28;20037;-77
2022/06/02 18:52:52;;;;;;;3.58;1.70;;;7.20;99.90;;;;;;5069818;28;20041;-77
2022/06/02 18:55:34;;;;;;;2.42;1.58;;;7.20;99.90;;;;;;5054760;28;20112;-77
2022/06/02 18:58:20;;;;;;;4.97;1.88;;;7.20;99.90;;;;;;5054743;28;20025;-74
2022/06/02 19:01:32;;;;;;;3.28;1.88;;;7.20;99.90;;;;;;5069163;28;20563;-73
2022/06/02 19:04:36;;;;;;;4.00;1.88;;;7.30;99.90;;;;;;5037279;28;20492;-75
2022/06/02 19:13:45;;;;;;;4.20;1.70;;;7.50;99.90;;;;;;5053231;28;20036;-74
2022/06/02 19:16:38;;;;;;;4.28;2.80;;;7.60;99.90;;;;;;5052862;28;20017;-73
2022/06/02 19:19:30;;;;;;;2.92;1.33;;;7.60;99.90;;;;;;5053327;28;20092;-74
2022/06/02 19:22:00;;;;;;;4.80;1.90;;;7.70;99.90;;;;;;5053170;28;20021;-74
2022/06/02 19:24:55;;;;;;;4.35;1.92;;;7.70;99.90;;;;;;5051637;28;20497;-74
2022/06/02 19:27:40;;;;;;;4.97;2.33;;;7.80;99.90;;;;;;5051489;28;20037;-74
2022/06/02 19:30:25;;;;;;;3.85;2.00;;;7.80;99.90;;;;;;5052883;28;20021;-74
2022/06/02 19:33:01;;;;;;;3.85;1.88;;;7.80;99.90;;;;;;5052845;28;20017;-74
2022/06/02 19:36:00;;;;;;;4.78;2.22;;;7.80;99.90;;;;;;5053740;28;20036;-74
2022/06/02 19:39:04;;;;;;;3.22;1.90;;;7.80;99.90;;;;;;5055262;28;20082;-74
2022/06/02 19:42:04;;;;;;;4.85;2.95;;;7.90;99.90;;;;;;5025088;28;20537;-74
2022/06/02 19:44:58;;;;;;;4.20;2.00;;;7.90;99.90;;;;;;5047489;28;20426;-75
2022/06/02 19:47:37;;;;;;;4.28;2.50;;;8.00;99.90;;;;;;5072121;28;20148;-75
2022/06/02 19:50:16;;;;;;;2.75;1.80;;;8.00;99.90;;;;;;5055170;28;20032;-73
2022/06/02 19:53:05;;;;;;;3.25;1.58;;;8.00;99.90;;;;;;5055093;28;20112;-74
2022/06/02 19:56:09;;;;;;;4.78;1.67;;;8.00;99.90;;;;;;5057360;28;20071;-75
2022/06/02 19:59:08;;;;;;;2.90;1.60;;;8.00;99.90;;;;;;5054856;28;20532;-74
2022/06/02 20:01:43;;;;;;;4.15;1.75;;;8.10;99.90;;;;;;5055053;28;20036;-74
2022/06/02 20:04:14;;;;;;;4.03;1.55;;;8.10;99.90;;;;;;5056264;28;20025;-74
2022/06/02 20:07:14;;;;;;;2.95;1.75;;;8.10;99.90;;;;;;5055074;28;20096;-74
2022/06/02 20:09:48;;;;;;;3.40;1.40;;;8.10;99.90;;;;;;5056147;28;20021;-74
2022/06/02 20:12:34;;;;;;;3.30;1.85;;;8.10;99.90;;;;;;5056389;28;20067;-74
2022/06/02 20:15:22;;;;;;;3.30;1.98;;;8.20;99.90;;;;;;5055866;28;20048;-74
2022/06/02 20:18:07;;;;;;;3.67;1.90;;;8.20;99.90;;;;;;5055959;28;20017;-74
2022/06/02 20:20:48;;;;;;;4.15;1.60;;;8.20;99.90;;;;;;5056050;28;20024;-73
2022/06/02 20:23:42;;;;;;;2.03;1.50;;;8.20;99.90;;;;;;5056342;28;20385;-74
2022/06/02 20:26:18;;;;;;;4.60;1.42;;;8.30;99.90;;;;;;5055970;28;20032;-74
2022/06/02 20:29:01;;;;;;;2.95;1.50;;;8.30;99.90;;;;;;5055983;28;20029;-74
2022/06/02 20:31:33;;;;;;;3.08;1.52;;;8.30;99.90;;;;;;5054285;28;20047;-73
2022/06/02 20:34:23;;;;;;;3.55;1.50;;;8.30;99.90;;;;;;5055537;28;20031;-73
2022/06/02 20:37:16;;;;;;;3.88;1.63;;;8.30;99.90;;;;;;5055641;28;20017;-75
2022/06/02 20:40:07;;;;;;;4.95;1.92;;;8.30;99.90;;;;;;5055615;28;20021;-75
2022/06/02 20:42:55;;;;;;;3.90;1.83;;;8.20;99.90;;;;;;5054133;28;20388;-75
2022/06/02 20:45:34;;;;;;;3.25;1.73;;;8.20;99.90;;;;;;5055814;28;20095;-74
2022/06/02 20:48:15;;;;;;;3.97;1.73;;;8.20;99.90;;;;;;5054942;28;20032;-73
2022/06/02 20:50:45;;;;;;;;;;;8.30;99.90;;;;;;5071074;28;20384;-72
2022/06/02 20:53:27;;;;;;;3.28;2.25;;;8.30;99.90;;;;;;5055139;28;19905;-73
2022/06/02 20:56:03;;;;;;;2.60;2.03;;;8.30;99.90;;;;;;5055343;28;20021;-74
2022/06/02 20:59:17;;;;;;;3.88;2.45;;;8.40;99.90;;;;;;5055085;28;20029;-74
2022/06/02 21:01:52;;;;;;;5.40;2.40;;;8.50;99.90;;;;;;5052601;28;20029;-75
2022/06/02 21:04:58;;;;;;;3.90;2.20;;;8.60;99.90;;;;;;5055235;28;20024;-73
2022/06/02 21:07:32;;;;;;;3.28;1.90;;;8.60;99.90;;;;;;5053848;28;20037;-74
2022/06/02 21:10:38;;;;;;;3.58;2.00;;;8.70;99.90;;;;;;5053507;28;20078;-74
2022/06/02 21:13:30;;;;;;;8.10;3.60;;;8.70;99.90;;;;;;5042239;28;20044;-74
2022/06/02 21:16:06;;;;;;;13.15;4.90;;;8.80;99.90;;;;;;5054595;28;20572;-74
2022/06/02 21:18:56;;;;;;;8.43;3.80;;;8.90;99.90;;;;;;5054029;28;20021;-75
2022/06/02 21:21:37;;;;;;;7.17;2.87;;;9.00;99.90;;;;;;5055279;28;20100;-74
2022/06/02 21:24:08;;;;;;;12.38;5.35;;;9.00;99.90;;;;;;5054718;28;20027;-74
2022/06/02 21:26:50;;;;;;;5.07;2.72;;;9.00;99.90;;;;;;5054858;28;20025;-75
2022/06/02 21:29:27;;;;;;;6.68;2.83;;;9.10;99.90;;;;;;5053444;28;20025;-73
2022/06/02 21:32:18;;;;;;;3.72;2.47;;;9.10;99.90;;;;;;5055069;28;20025;-76
2022/06/02 21:34:49;;;;;;;5.68;2.63;;;9.20;99.90;;;;;;5054631;28;20552;-75
2022/06/02 21:37:24;;;;;;;4.32;2.40;;;9.20;99.90;;;;;;5054666;28;20408;-74
2022/06/02 21:40:00;;;;;;;8.05;3.35;;;9.20;99.90;;;;;;5054324;28;20045;-73
2022/06/02 21:42:49;;;;;;;6.80;3.75;;;9.30;99.90;;;;;;5054145;28;20024;-73
2022/06/02 21:45:29;;;;;;;4.88;2.30;;;9.30;99.90;;;;;;5053912;28;20017;-71
2022/06/02 21:48:19;;;;;;;31.55;11.20;;;9.40;99.90;;;;;;5054489;28;20477;-74
2022/06/02 21:51:30;;;;;;;8.68;4.13;;;9.50;99.90;;;;;;5054219;28;20025;-70
2022/06/02 21:54:37;;;;;;;12.75;4.28;;;9.70;99.90;;;;;;5054075;28;20208;-72
2022/06/02 21:57:07;;;;;;;25.95;4.72;;;9.60;99.90;;;;;;5053873;28;20029;-73
2022/06/02 21:59:49;;;;;;;5.63;2.85;;;9.70;99.90;;;;;;5051474;28;20017;-73
2022/06/02 22:02:25;;;;;;;7.13;2.55;;;9.70;99.90;;;;;;5052149;28;20025;-74
2022/06/02 22:05:08;;;;;;;5.95;2.47;;;9.70;99.90;;;;;;5052071;28;20029;-74
2022/06/02 22:07:47;;;;;;;6.57;2.25;;;9.70;99.90;;;;;;5053369;28;20128;-73
2022/06/02 22:10:37;;;;;;;16.98;5.18;;;9.70;99.90;;;;;;5053354;28;20071;-73
2022/06/02 22:13:07;;;;;;;8.20;2.90;;;9.80;99.90;;;;;;5049836;28;20501;-74
2022/06/02 22:15:41;;;;;;;5.10;2.50;;;9.90;99.90;;;;;;5053040;28;20361;-74
2022/06/02 22:18:26;;;;;;;5.07;2.00;;;9.90;99.90;;;;;;5053193;28;20108;-75
2022/06/02 22:20:57;;;;;;;7.03;1.90;;;10.00;99.90;;;;;;5051818;28;20485;-74
2022/06/02 22:23:28;;;;;;;4.68;2.30;;;10.00;99.90;;;;;;5053422;28;20418;-74
2022/06/02 22:26:14;;;;;;;3.53;1.70;;;10.00;99.90;;;;;;5053073;28;20091;-75
2022/06/02 22:29:11;;;;;;;3.20;1.20;;;10.10;99.90;;;;;;5051843;28;20123;-74
2022/06/02 22:31:47;;;;;;;2.50;1.77;;;10.00;99.90;;;;;;5049613;28;20353;-74
2022/06/02 22:34:28;;;;;;;2.78;1.35;;;10.00;99.90;;;;;;5051635;28;20036;-74
2022/06/02 22:37:13;;;;;;;2.33;1.40;;;10.00;99.90;;;;;;5051831;28;20024;-74
2022/06/02 22:40:13;;;;;;;4.50;1.70;;;10.00;99.90;;;;;;5053393;28;20381;-74
2022/06/02 22:43:06;;;;;;;4.22;1.50;;;10.00;99.90;;;;;;5053176;28;20021;-74
2022/06/02 22:45:48;;;;;;;3.25;1.67;;;10.10;99.90;;;;;;5052949;28;20043;-73
2022/06/02 22:48:31;;;;;;;2.03;1.38;;;10.20;99.90;;;;;;5051652;28;20025;-73
2022/06/02 22:51:22;;;;;;;3.35;1.58;;;10.20;99.90;;;;;;5051781;28;20036;-74
2022/06/02 22:54:00;;;;;;;4.20;1.45;;;10.40;99.90;;;;;;5053082;28;20052;-73
2022/06/02 22:56:50;;;;;;;5.57;1.83;;;10.40;99.90;;;;;;5053089;28;20017;-73
2022/06/02 22:59:37;;;;;;;2.83;1.70;;;10.60;99.90;;;;;;5052404;28;20029;-73
2022/06/02 23:02:22;;;;;;;5.63;1.95;;;10.80;99.90;;;;;;5052611;28;20381;-75
2022/06/02 23:05:26;;;;;;;3.70;2.47;;;10.90;99.90;;;;;;5052327;28;20538;-73
2022/06/02 23:08:06;;;;;;;3.40;2.10;;;10.90;99.90;;;;;;5052253;28;20021;-73
2022/06/02 23:10:42;;;;;;;5.43;2.70;;;11.00;99.90;;;;;;5050684;28;20055;-73
2022/06/02 23:13:33;;;;;;;5.80;2.70;;;11.00;99.90;;;;;;5051180;28;20090;-73
2022/06/02 23:16:27;;;;;;;6.57;3.30;;;11.00;99.90;;;;;;5052440;28;20060;-74
2022/06/02 23:19:36;;;;;;;5.68;2.85;;;11.10;99.90;;;;;;5052518;28;20092;-73
2022/06/02 23:22:09;;;;;;;438.65;94.20;;;11.20;99.90;;;;;;5052622;28;20547;-73
2022/06/02 23:24:49;;;;;;;19.33;5.25;;;11.60;99.90;;;;;;5052576;28;20036;-73
2022/06/02 23:27:44;;;;;;;4.35;1.90;;;11.60;99.90;;;;;;5052731;28;20420;-73
2022/06/02 23:30:45;;;;;;;4.95;2.35;;;11.70;99.90;;;;;;5052596;28;20025;-73
2022/06/02 23:33:23;;;;;;;;;;;11.80;99.90;;;;;;5052768;28;20104;-73
2022/06/02 23:36:18;;;;;;;4.38;2.50;;;11.90;99.90;;;;;;5052219;28;19915;-73
2022/06/02 23:38:48;;;;;;;4.93;2.40;;;12.10;99.90;;;;;;5052554;28;20013;-73
2022/06/02 23:44:33;;;;;;;5.10;2.88;;;12.30;99.90;;;;;;5052759;28;20471;-74
2022/06/02 23:47:06;;;;;;;9.85;4.07;;;12.60;99.90;;;;;;5051206;28;20021;-74
2022/06/02 23:49:51;;;;;;;8.65;3.85;;;12.60;99.90;;;;;;5052406;28;20029;-72
2022/06/02 23:52:46;;;;;;;11.93;4.82;;;12.60;99.90;;;;;;5051160;28;20485;-72
2022/06/02 23:55:29;;;;;;;6.60;1.90;;;12.60;99.90;;;;;;5052271;28;20017;-72
2022/06/02 23:58:35;;;;;;;3.40;1.70;;;12.80;99.90;;;;;;5052346;28;20100;-73
